createdAt,value
2023-03-02T00:00:06.667Z,3.74
2023-03-02T00:01:09.767Z,3.76
2023-03-02T00:02:06.897Z,3.67
2023-03-02T00:03:07.026Z,3.77
2023-03-02T00:04:06.779Z,3.7
2023-03-02T00:05:06.645Z,3.74
2023-03-02T00:06:06.639Z,3.64
2023-03-02T00:07:06.671Z,3.58
2023-03-02T00:08:06.654Z,3.63
2023-03-02T00:09:06.673Z,3.61
2023-03-02T00:10:06.609Z,3.63
2023-03-02T00:11:06.800Z,3.71
2023-03-02T00:12:09.669Z,3.59
2023-03-02T00:13:06.633Z,3.66
2023-03-02T00:14:06.662Z,3.59
2023-03-02T00:15:06.747Z,3.74
2023-03-02T00:16:06.800Z,3.63
2023-03-02T00:17:06.643Z,3.77
2023-03-02T00:18:06.620Z,3.66
2023-03-02T00:19:06.669Z,3.71
2023-03-02T00:20:06.646Z,3.74
2023-03-02T00:21:06.651Z,3.77
2023-03-02T00:22:06.644Z,3.73
2023-03-02T00:23:09.394Z,3.74
2023-03-02T00:24:06.647Z,3.71
2023-03-02T00:25:06.652Z,3.71
2023-03-02T00:26:06.640Z,3.7
2023-03-02T00:27:06.701Z,3.76
2023-03-02T00:28:06.681Z,3.76
2023-03-02T00:29:06.680Z,3.68
2023-03-02T00:30:06.662Z,3.74
2023-03-02T00:31:06.882Z,3.68
2023-03-02T00:32:06.876Z,3.66
2023-03-02T00:33:06.643Z,3.76
2023-03-02T00:34:06.683Z,3.71
2023-03-02T00:35:06.709Z,3.82
2023-03-02T00:36:06.881Z,3.81
2023-03-02T00:37:06.673Z,3.82
2023-03-02T00:38:06.658Z,3.78
2023-03-02T00:39:06.829Z,3.78
2023-03-02T00:40:06.745Z,3.77
2023-03-02T00:41:06.671Z,3.74
2023-03-02T00:42:06.661Z,3.77
2023-03-02T00:43:06.883Z,3.82
2023-03-02T00:44:06.750Z,3.74
2023-03-02T00:45:06.696Z,3.73
2023-03-02T00:46:06.725Z,3.74
2023-03-02T00:47:06.856Z,3.74
2023-03-02T00:48:06.677Z,3.74
2023-03-02T00:49:06.700Z,3.74
2023-03-02T00:50:06.760Z,3.68
2023-03-02T00:51:06.681Z,3.78
2023-03-02T00:52:06.706Z,3.7
2023-03-02T00:53:06.721Z,3.7
2023-03-02T00:54:06.745Z,3.77
2023-03-02T00:55:06.896Z,3.74
2023-03-02T00:56:06.707Z,3.78
2023-03-02T00:57:06.693Z,3.74
2023-03-02T00:58:06.730Z,3.68
2023-03-02T00:59:06.769Z,3.68
2023-03-02T01:00:06.755Z,3.7
2023-03-02T01:01:06.723Z,3.7
2023-03-02T01:02:06.847Z,3.86
2023-03-02T01:03:07.016Z,3.63
2023-03-02T01:04:06.762Z,3.73
2023-03-02T01:05:06.721Z,3.63
2023-03-02T01:06:09.583Z,3.73
2023-03-02T01:07:06.716Z,3.71
2023-03-02T01:08:06.697Z,3.68
2023-03-02T01:09:06.726Z,3.58
2023-03-02T01:10:06.732Z,3.61
2023-03-02T01:11:06.731Z,3.59
2023-03-02T01:12:06.721Z,3.68
2023-03-02T01:13:06.749Z,3.67
2023-03-02T01:14:06.586Z,3.63
2023-03-02T01:15:06.796Z,3.66
2023-03-02T01:16:07.015Z,3.64
2023-03-02T01:17:09.883Z,3.61
2023-03-02T01:18:06.743Z,3.61
2023-03-02T01:19:06.752Z,3.45
2023-03-02T01:20:06.746Z,3.52
2023-03-02T01:21:06.761Z,3.34
2023-03-02T01:22:06.738Z,3.24
2023-03-02T01:23:06.763Z,3.26
2023-03-02T01:24:06.806Z,3.21
2023-03-02T01:25:06.740Z,3.13
2023-03-02T01:26:06.762Z,3.24
2023-03-02T01:27:06.766Z,3.24
2023-03-02T01:28:09.534Z,3.19
2023-03-02T01:29:06.776Z,3.18
2023-03-02T01:30:06.797Z,3.24
2023-03-02T01:31:07.210Z,3.29
2023-03-02T01:32:07.186Z,3.22
2023-03-02T01:33:06.761Z,3.26
2023-03-02T01:34:06.853Z,3.19
2023-03-02T01:35:06.781Z,3.21
2023-03-02T01:36:06.943Z,3.21
2023-03-02T01:37:06.770Z,3.29
2023-03-02T01:38:06.984Z,3.19
2023-03-02T01:39:09.571Z,3.29
2023-03-02T01:40:06.800Z,3.27
2023-03-02T01:41:06.784Z,3.24
2023-03-02T01:42:06.758Z,3.33
2023-03-02T01:43:06.791Z,3.31
2023-03-02T01:44:06.762Z,3.21
2023-03-02T01:45:06.782Z,3.18
2023-03-02T01:46:07.036Z,3.19
2023-03-02T01:47:06.878Z,3.18
2023-03-02T01:48:06.813Z,3.06
2023-03-02T01:49:06.793Z,3.12
2023-03-02T01:50:09.831Z,3.11
2023-03-02T01:51:06.782Z,3.12
2023-03-02T01:52:06.784Z,3.09
2023-03-02T01:53:09.187Z,3.08
2023-03-02T01:54:06.812Z,3.11
2023-03-02T01:55:06.641Z,3
2023-03-02T01:56:06.801Z,3.05
2023-03-02T01:57:06.796Z,3.06
2023-03-02T01:58:06.871Z,2.98
2023-03-02T01:59:07.038Z,3.03
2023-03-02T02:00:06.795Z,3.01
2023-03-02T02:01:10.396Z,2.97
2023-03-02T02:02:06.832Z,3.16
2023-03-02T02:03:06.991Z,2.98
2023-03-02T02:04:07.061Z,3
2023-03-02T02:05:06.840Z,2.97
2023-03-02T02:06:09.679Z,3.05
2023-03-02T02:07:06.909Z,3.03
2023-03-02T02:08:06.831Z,3.06
2023-03-02T02:09:06.804Z,3.01
2023-03-02T02:10:09.816Z,3.03
2023-03-02T02:11:06.814Z,3.03
2023-03-02T02:12:09.578Z,3.06
2023-03-02T02:13:06.832Z,3.05
2023-03-02T02:14:06.808Z,3.09
2023-03-02T02:15:09.584Z,3.08
2023-03-02T02:16:07.031Z,3.01
2023-03-02T02:17:09.571Z,3.09
2023-03-02T02:18:06.843Z,3.03
2023-03-02T02:19:06.903Z,3.18
2023-03-02T02:20:06.913Z,3.12
2023-03-02T02:21:06.827Z,3.15
2023-03-02T02:22:06.837Z,3.21
2023-03-02T02:23:09.891Z,3.09
2023-03-02T02:24:06.823Z,3.12
2023-03-02T02:25:06.930Z,3.15
2023-03-02T02:26:06.831Z,3.09
2023-03-02T02:27:06.855Z,3.08
2023-03-02T02:28:09.583Z,3.09
2023-03-02T02:29:06.827Z,3.06
2023-03-02T02:30:06.931Z,3.08
2023-03-02T02:31:06.853Z,2.98
2023-03-02T02:32:07.376Z,3
2023-03-02T02:33:06.867Z,3.05
2023-03-02T02:34:06.876Z,2.93
2023-03-02T02:35:06.955Z,2.85
2023-03-02T02:36:07.009Z,2.62
2023-03-02T02:37:06.892Z,2.34
2023-03-02T02:38:06.861Z,2.41
2023-03-02T02:39:09.834Z,2.43
2023-03-02T02:40:06.998Z,2.46
2023-03-02T02:41:06.906Z,2.32
2023-03-02T02:42:06.870Z,2.19
2023-03-02T02:43:06.899Z,2.16
2023-03-02T02:44:06.863Z,2.07
2023-03-02T02:45:06.910Z,2.16
2023-03-02T02:46:07.080Z,2.21
2023-03-02T02:47:06.883Z,2.22
2023-03-02T02:48:06.885Z,2.39
2023-03-02T02:49:06.885Z,2.36
2023-03-02T02:50:07.052Z,2.41
2023-03-02T02:51:06.932Z,2.4
2023-03-02T02:52:06.940Z,2.43
2023-03-02T02:53:06.877Z,2.47
2023-03-02T02:54:07.180Z,2.34
2023-03-02T02:55:06.920Z,2.51
2023-03-02T02:56:06.910Z,2.46
2023-03-02T02:57:06.884Z,2.44
2023-03-02T02:58:06.896Z,2.51
2023-03-02T02:59:06.894Z,2.5
2023-03-02T03:00:07.114Z,2.51
2023-03-02T03:01:07.099Z,2.5
2023-03-02T03:02:06.906Z,2.4
2023-03-02T03:03:06.901Z,2.51
2023-03-02T03:04:07.325Z,2.41
2023-03-02T03:05:06.920Z,2.47
2023-03-02T03:06:06.951Z,2.41
2023-03-02T03:07:06.983Z,2.43
2023-03-02T03:08:06.951Z,2.32
2023-03-02T03:09:06.910Z,2.41
2023-03-02T03:10:07.006Z,2.5
2023-03-02T03:11:06.905Z,2.43
2023-03-02T03:12:06.936Z,2.41
2023-03-02T03:13:06.943Z,2.51
2023-03-02T03:14:06.906Z,2.5
2023-03-02T03:15:06.962Z,2.59
2023-03-02T03:16:06.932Z,2.43
2023-03-02T03:17:07.247Z,2.44
2023-03-02T03:18:06.912Z,2.46
2023-03-02T03:19:06.926Z,2.52
2023-03-02T03:20:06.943Z,2.43
2023-03-02T03:21:06.933Z,2.57
2023-03-02T03:22:10.001Z,2.59
2023-03-02T03:23:06.953Z,2.43
2023-03-02T03:24:06.969Z,2.52
2023-03-02T03:25:06.977Z,2.5
2023-03-02T03:26:06.934Z,2.46
2023-03-02T03:27:06.950Z,2.46
2023-03-02T03:28:06.927Z,2.36
2023-03-02T03:29:06.959Z,2.44
2023-03-02T03:30:06.931Z,2.43
2023-03-02T03:31:07.219Z,2.51
2023-03-02T03:32:07.198Z,2.46
2023-03-02T03:33:09.732Z,2.41
2023-03-02T03:34:06.958Z,2.41
2023-03-02T03:35:06.976Z,2.39
2023-03-02T03:36:06.998Z,2.37
2023-03-02T03:37:06.940Z,2.3
2023-03-02T03:38:06.984Z,2.25
2023-03-02T03:39:06.949Z,2.37
2023-03-02T03:40:06.986Z,2.37
2023-03-02T03:41:06.971Z,2.3
2023-03-02T03:42:06.976Z,2.33
2023-03-02T03:43:06.936Z,2.36
2023-03-02T03:44:08.044Z,2.36
2023-03-02T03:45:06.957Z,2.36
2023-03-02T03:46:07.101Z,2.39
2023-03-02T03:47:06.980Z,2.33
2023-03-02T03:48:07.001Z,2.34
2023-03-02T03:49:06.973Z,2.32
2023-03-02T03:50:06.998Z,2.34
2023-03-02T03:51:07.022Z,2.36
2023-03-02T03:52:06.998Z,2.36
2023-03-02T03:53:08.575Z,2.33
2023-03-02T03:54:07.061Z,2.37
2023-03-02T03:55:09.837Z,2.46
2023-03-02T03:56:07.034Z,2.44
2023-03-02T03:57:06.993Z,2.32
2023-03-02T03:58:06.998Z,2.41
2023-03-02T03:59:06.828Z,2.36
2023-03-02T04:00:06.982Z,2.46
2023-03-02T04:01:07.139Z,2.4
2023-03-02T04:02:07.021Z,2.58
2023-03-02T04:03:06.983Z,2.46
2023-03-02T04:04:06.991Z,2.36
2023-03-02T04:05:06.995Z,2.43
2023-03-02T04:06:09.803Z,2.47
2023-03-02T04:07:06.981Z,2.51
2023-03-02T04:08:07.048Z,2.52
2023-03-02T04:09:07.371Z,2.52
2023-03-02T04:10:07.161Z,2.43
2023-03-02T04:11:07.068Z,2.47
2023-03-02T04:12:07.036Z,2.47
2023-03-02T04:13:07.025Z,2.39
2023-03-02T04:14:07.046Z,2.34
2023-03-02T04:15:07.003Z,2.36
2023-03-02T04:16:07.280Z,2.23
2023-03-02T04:17:10.015Z,2.22
2023-03-02T04:18:07.003Z,2.16
2023-03-02T04:19:06.993Z,2.25
2023-03-02T04:20:07.021Z,2.12
2023-03-02T04:21:07.051Z,2.1
2023-03-02T04:22:07.003Z,2.08
2023-03-02T04:23:07.054Z,2
2023-03-02T04:24:07.000Z,1.88
2023-03-02T04:25:07.049Z,1.88
2023-03-02T04:26:07.062Z,1.79
2023-03-02T04:27:07.076Z,1.84
2023-03-02T04:28:08.179Z,1.85
2023-03-02T04:29:07.065Z,2
2023-03-02T04:30:07.072Z,2.03
2023-03-02T04:31:07.314Z,1.97
2023-03-02T04:32:07.259Z,1.89
2023-03-02T04:33:10.072Z,2.03
2023-03-02T04:34:07.052Z,1.81
2023-03-02T04:35:07.104Z,1.85
2023-03-02T04:36:07.156Z,1.76
2023-03-02T04:37:07.088Z,1.84
2023-03-02T04:38:07.076Z,1.79
2023-03-02T04:39:09.924Z,1.95
2023-03-02T04:40:07.064Z,1.88
2023-03-02T04:41:07.133Z,1.75
2023-03-02T04:42:07.207Z,1.84
2023-03-02T04:43:07.050Z,1.89
2023-03-02T04:44:09.957Z,1.84
2023-03-02T04:45:07.089Z,1.93
2023-03-02T04:46:07.284Z,1.82
2023-03-02T04:47:07.051Z,1.85
2023-03-02T04:48:07.063Z,2.01
2023-03-02T04:49:07.116Z,2.05
2023-03-02T04:50:09.874Z,2.15
2023-03-02T04:51:07.099Z,2.01
2023-03-02T04:52:07.067Z,2.12
2023-03-02T04:53:07.116Z,2.04
2023-03-02T04:54:07.086Z,2.05
2023-03-02T04:55:10.135Z,2.15
2023-03-02T04:56:07.103Z,2.05
2023-03-02T04:57:07.091Z,2.14
2023-03-02T04:58:07.161Z,2.08
2023-03-02T04:59:07.084Z,2.12
2023-03-02T05:00:07.144Z,2.14
2023-03-02T05:01:07.194Z,2.14
2023-03-02T05:02:07.229Z,1.98
2023-03-02T05:03:07.225Z,1.85
2023-03-02T05:04:07.817Z,1.81
2023-03-02T05:05:07.168Z,1.82
2023-03-02T05:06:10.128Z,1.79
2023-03-02T05:07:07.117Z,1.67
2023-03-02T05:08:07.118Z,1.84
2023-03-02T05:09:07.218Z,1.7
2023-03-02T05:10:07.109Z,1.66
2023-03-02T05:11:07.106Z,1.64
2023-03-02T05:12:07.109Z,1.64
2023-03-02T05:13:08.247Z,1.43
2023-03-02T05:14:07.263Z,1.42
2023-03-02T05:15:07.155Z,1.32
2023-03-02T05:16:07.400Z,1.38
2023-03-02T05:17:09.830Z,1.38
2023-03-02T05:18:07.114Z,1.2
2023-03-02T05:19:07.132Z,1.25
2023-03-02T05:20:07.140Z,1.27
2023-03-02T05:21:07.183Z,1.25
2023-03-02T05:22:07.146Z,1.38
2023-03-02T05:23:07.336Z,1.36
2023-03-02T05:24:07.111Z,1.38
2023-03-02T05:25:07.156Z,1.42
2023-03-02T05:26:07.125Z,1.31
2023-03-02T05:27:07.115Z,1.32
2023-03-02T05:28:07.182Z,1.31
2023-03-02T05:29:07.142Z,1.38
2023-03-02T05:30:07.211Z,1.38
2023-03-02T05:31:10.284Z,1.5
2023-03-02T05:32:07.296Z,1.46
2023-03-02T05:33:07.128Z,1.46
2023-03-02T05:34:07.146Z,1.43
2023-03-02T05:35:07.567Z,1.6
2023-03-02T05:36:07.464Z,1.57
2023-03-02T05:37:07.155Z,1.52
2023-03-02T05:38:07.011Z,1.53
2023-03-02T05:39:07.149Z,1.63
2023-03-02T05:40:07.179Z,1.6
2023-03-02T05:41:07.153Z,1.58
2023-03-02T05:42:07.165Z,1.48
2023-03-02T05:43:07.140Z,1.46
2023-03-02T05:44:07.218Z,1.46
2023-03-02T05:45:07.448Z,1.38
2023-03-02T05:46:07.267Z,1.4
2023-03-02T05:47:07.303Z,1.21
2023-03-02T05:48:07.205Z,1.32
2023-03-02T05:49:10.204Z,1.22
2023-03-02T05:50:07.197Z,1.13
2023-03-02T05:51:07.166Z,1.13
2023-03-02T05:52:07.155Z,1.12
2023-03-02T05:53:07.277Z,1.2
2023-03-02T05:54:07.171Z,1.16
2023-03-02T05:55:07.590Z,1.14
2023-03-02T05:56:07.200Z,1.27
2023-03-02T05:57:07.206Z,1.34
2023-03-02T05:58:07.151Z,1.28
2023-03-02T05:59:07.173Z,1.39
2023-03-02T06:00:10.060Z,1.42
2023-03-02T06:01:07.192Z,1.32
2023-03-02T06:02:07.442Z,1.22
2023-03-02T06:03:07.520Z,1.22
2023-03-02T06:04:07.237Z,1.28
2023-03-02T06:05:07.183Z,1.25
2023-03-02T06:06:07.168Z,1.4
2023-03-02T06:07:07.182Z,1.43
2023-03-02T06:08:07.234Z,1.52
2023-03-02T06:09:07.189Z,1.57
2023-03-02T06:10:07.165Z,1.58
2023-03-02T06:11:08.248Z,1.63
2023-03-02T06:12:07.211Z,1.66
2023-03-02T06:13:07.224Z,1.57
2023-03-02T06:14:07.201Z,1.66
2023-03-02T06:15:07.216Z,1.76
2023-03-02T06:16:07.495Z,1.81
2023-03-02T06:17:07.190Z,1.68
2023-03-02T06:18:07.247Z,1.58
2023-03-02T06:19:07.342Z,1.63
2023-03-02T06:20:07.220Z,1.61
2023-03-02T06:21:07.197Z,1.66
2023-03-02T06:22:09.979Z,1.7
2023-03-02T06:23:07.064Z,1.81
2023-03-02T06:24:07.217Z,1.81
2023-03-02T06:25:07.223Z,1.82
2023-03-02T06:26:07.229Z,1.89
2023-03-02T06:27:07.220Z,1.89
2023-03-02T06:28:07.228Z,1.82
2023-03-02T06:29:07.212Z,1.71
2023-03-02T06:30:07.235Z,1.67
2023-03-02T06:31:07.218Z,1.67
2023-03-02T06:32:07.761Z,1.6
2023-03-02T06:33:10.138Z,1.61
2023-03-02T06:34:07.246Z,1.53
2023-03-02T06:35:07.441Z,1.67
2023-03-02T06:36:07.619Z,1.5
2023-03-02T06:37:07.260Z,1.64
2023-03-02T06:38:07.255Z,1.61
2023-03-02T06:39:07.249Z,1.63
2023-03-02T06:40:07.254Z,1.58
2023-03-02T06:41:07.234Z,1.78
2023-03-02T06:42:07.104Z,1.88
2023-03-02T06:43:09.019Z,2.03
2023-03-02T06:44:10.379Z,2.05
2023-03-02T06:45:07.270Z,2.12
2023-03-02T06:46:07.390Z,2.25
2023-03-02T06:47:07.296Z,2.39
2023-03-02T06:48:07.261Z,2.47
2023-03-02T06:49:07.154Z,2.52
2023-03-02T06:50:07.431Z,2.68
2023-03-02T06:51:07.235Z,2.8
2023-03-02T06:52:07.303Z,2.93
2023-03-02T06:53:07.261Z,3.03
2023-03-02T06:54:07.235Z,3.15
2023-03-02T06:55:08.352Z,3.24
2023-03-02T06:56:07.279Z,3.4
2023-03-02T06:57:07.253Z,3.45
2023-03-02T06:58:07.096Z,3.58
2023-03-02T06:59:07.269Z,3.73
2023-03-02T07:00:10.439Z,3.71
2023-03-02T07:01:07.506Z,3.92
2023-03-02T07:02:07.284Z,4.12
2023-03-02T07:03:07.285Z,4.22
2023-03-02T07:04:07.723Z,4.18
2023-03-02T07:05:07.350Z,4.36
2023-03-02T07:06:10.069Z,4.45
2023-03-02T07:07:07.326Z,4.53
2023-03-02T07:08:07.311Z,4.63
2023-03-02T07:09:07.280Z,4.86
2023-03-02T07:10:07.312Z,4.76
2023-03-02T07:11:08.200Z,4.86
2023-03-02T07:12:07.348Z,5.05
2023-03-02T07:13:09.471Z,5.18
2023-03-02T07:14:07.332Z,5.25
2023-03-02T07:15:07.310Z,5.23
2023-03-02T07:16:07.303Z,5.33
2023-03-02T07:17:10.631Z,5.37
2023-03-02T07:18:07.279Z,5.46
2023-03-02T07:19:07.371Z,5.58
2023-03-02T07:20:07.301Z,5.79
2023-03-02T07:21:07.522Z,5.83
2023-03-02T07:22:10.076Z,6.05
2023-03-02T07:23:07.291Z,6.16
2023-03-02T07:24:07.330Z,6.29
2023-03-02T07:25:07.341Z,6.36
2023-03-02T07:26:07.439Z,6.56
2023-03-02T07:27:07.334Z,6.87
2023-03-02T07:28:07.355Z,7.04
2023-03-02T07:29:07.320Z,7.19
2023-03-02T07:30:07.315Z,7.37
2023-03-02T07:31:07.509Z,7.33
2023-03-02T07:32:07.465Z,7.53
2023-03-02T07:33:10.409Z,7.81
2023-03-02T07:34:07.317Z,7.91
2023-03-02T07:35:07.349Z,8.14
2023-03-02T07:36:07.568Z,8.32
2023-03-02T07:37:07.501Z,8.28
2023-03-02T07:38:07.156Z,8.49
2023-03-02T07:39:07.318Z,8.72
2023-03-02T07:40:07.405Z,8.72
2023-03-02T07:41:07.336Z,8.79
2023-03-02T07:42:07.330Z,8.74
2023-03-02T07:43:07.317Z,8.82
2023-03-02T07:44:10.387Z,8.78
2023-03-02T07:45:07.426Z,8.79
2023-03-02T07:46:07.540Z,8.44
2023-03-02T07:47:07.336Z,8.52
2023-03-02T07:48:07.351Z,8.71
2023-03-02T07:49:07.334Z,8.69
2023-03-02T07:50:07.398Z,9.09
2023-03-02T07:51:07.392Z,8.99
2023-03-02T07:52:07.334Z,8.86
2023-03-02T07:53:07.497Z,9
2023-03-02T07:54:07.408Z,9.33
2023-03-02T07:55:07.334Z,9.42
2023-03-02T07:56:07.398Z,9.8
2023-03-02T07:57:07.353Z,9.66
2023-03-02T07:58:07.381Z,9.84
2023-03-02T07:59:07.335Z,9.72
2023-03-02T08:00:07.335Z,9.85
2023-03-02T08:01:07.401Z,10.1
2023-03-02T08:02:07.569Z,10.05
2023-03-02T08:03:07.558Z,10.2
2023-03-02T08:04:07.385Z,10.49
2023-03-02T08:05:07.344Z,10.46
2023-03-02T08:06:07.397Z,10.53
2023-03-02T08:07:07.361Z,10.61
2023-03-02T08:08:07.363Z,10.8
2023-03-02T08:09:07.417Z,11.04
2023-03-02T08:10:07.376Z,11.25
2023-03-02T08:11:07.390Z,11.31
2023-03-02T08:12:07.453Z,11.44
2023-03-02T08:13:07.354Z,11.35
2023-03-02T08:14:07.409Z,11.45
2023-03-02T08:15:09.503Z,11.48
2023-03-02T08:16:10.733Z,11.44
2023-03-02T08:17:07.423Z,11.67
2023-03-02T08:18:07.403Z,11.59
2023-03-02T08:19:07.420Z,11.89
2023-03-02T08:20:07.434Z,11.55
2023-03-02T08:21:07.384Z,11.65
2023-03-02T08:22:07.419Z,11.59
2023-03-02T08:23:07.401Z,11.7
2023-03-02T08:24:10.714Z,11.86
2023-03-02T08:25:07.424Z,11.6
2023-03-02T08:26:07.498Z,11.99
2023-03-02T08:27:10.242Z,11.71
2023-03-02T08:28:07.443Z,11.76
2023-03-02T08:29:07.398Z,11.68
2023-03-02T08:30:07.419Z,11.74
2023-03-02T08:31:07.508Z,11.6
2023-03-02T08:32:07.904Z,11.48
2023-03-02T08:33:14.572Z,11.31
2023-03-02T08:34:07.440Z,11.41
2023-03-02T08:35:07.420Z,11.37
2023-03-02T08:36:07.643Z,11.25
2023-03-02T08:37:07.445Z,11.52
2023-03-02T08:38:10.429Z,11.88
2023-03-02T08:39:07.434Z,12.2
2023-03-02T08:40:07.688Z,12.32
2023-03-02T08:41:07.470Z,12.39
2023-03-02T08:42:07.443Z,12.45
2023-03-02T08:43:10.328Z,12.78
2023-03-02T08:44:07.504Z,12.69
2023-03-02T08:45:07.439Z,12.72
2023-03-02T08:46:07.654Z,12.9
2023-03-02T08:47:07.421Z,12.81
2023-03-02T08:48:07.462Z,12.58
2023-03-02T08:49:10.324Z,12.87
2023-03-02T08:50:07.421Z,12.87
2023-03-02T08:51:07.514Z,12.91
2023-03-02T08:52:07.470Z,12.88
2023-03-02T08:53:07.469Z,13.11
2023-03-02T08:54:07.498Z,13.12
2023-03-02T08:55:08.990Z,13.16
2023-03-02T08:56:07.520Z,13.21
2023-03-02T08:57:07.591Z,13.17
2023-03-02T08:58:07.444Z,13.27
2023-03-02T08:59:07.462Z,13.31
2023-03-02T09:00:10.351Z,13.52
2023-03-02T09:01:07.654Z,13.19
2023-03-02T09:02:07.465Z,13.45
2023-03-02T09:03:07.469Z,13.37
2023-03-02T09:04:07.756Z,13.57
2023-03-02T09:05:07.464Z,13.86
2023-03-02T09:06:07.565Z,13.89
2023-03-02T09:07:07.548Z,13.98
2023-03-02T09:08:07.474Z,13.64
2023-03-02T09:09:07.485Z,13.83
2023-03-02T09:10:07.477Z,13.78
2023-03-02T09:11:10.656Z,13.52
2023-03-02T09:12:07.324Z,13.78
2023-03-02T09:13:10.383Z,13.75
2023-03-02T09:14:07.476Z,13.43
2023-03-02T09:15:07.482Z,13.61
2023-03-02T09:16:07.591Z,13.76
2023-03-02T09:17:07.468Z,14.01
2023-03-02T09:18:07.500Z,13.67
2023-03-02T09:19:07.471Z,13.83
2023-03-02T09:20:07.482Z,13.85
2023-03-02T09:21:07.502Z,14.12
2023-03-02T09:22:10.314Z,13.83
2023-03-02T09:23:10.456Z,14.08
2023-03-02T09:24:07.504Z,14.2
2023-03-02T09:25:07.523Z,14.49
2023-03-02T09:26:07.485Z,14.79
2023-03-02T09:27:07.676Z,14.61
2023-03-02T09:28:07.526Z,14.41
2023-03-02T09:29:07.574Z,14.58
2023-03-02T09:30:07.510Z,14.45
2023-03-02T09:31:07.492Z,14.61
2023-03-02T09:32:08.067Z,14.55
2023-03-02T09:33:11.164Z,14.22
2023-03-02T09:34:07.576Z,14.16
2023-03-02T09:35:07.359Z,14.43
2023-03-02T09:36:07.523Z,13.82
2023-03-02T09:37:07.525Z,14.18
2023-03-02T09:38:10.488Z,14.25
2023-03-02T09:39:07.529Z,14.28
2023-03-02T09:40:07.606Z,14.33
2023-03-02T09:41:07.535Z,14.43
2023-03-02T09:42:07.543Z,14.63
2023-03-02T09:43:07.617Z,14.74
2023-03-02T09:44:10.303Z,14.58
2023-03-02T09:45:07.543Z,14.52
2023-03-02T09:46:07.737Z,14.23
2023-03-02T09:47:10.387Z,14.28
2023-03-02T09:48:07.579Z,14.66
2023-03-02T09:49:10.364Z,14.2
2023-03-02T09:50:07.706Z,14.68
2023-03-02T09:51:07.539Z,14.51
2023-03-02T09:52:07.682Z,14.08
2023-03-02T09:53:07.535Z,14.25
2023-03-02T09:54:07.718Z,13.86
2023-03-02T09:55:10.536Z,14.25
2023-03-02T09:56:07.551Z,14.43
2023-03-02T09:57:07.584Z,14.67
2023-03-02T09:58:07.589Z,14.7
2023-03-02T09:59:07.692Z,14.71
2023-03-02T10:00:23.126Z,14.37
2023-03-02T10:01:07.617Z,14.15
2023-03-02T10:02:07.553Z,14.41
2023-03-02T10:03:21.280Z,14.94
2023-03-02T10:04:08.145Z,15.35
2023-03-02T10:05:07.578Z,15.47
2023-03-02T10:06:07.608Z,15.44
2023-03-02T10:07:07.559Z,15.22
2023-03-02T10:08:07.573Z,15.45
2023-03-02T10:09:07.566Z,15.37
2023-03-02T10:10:07.562Z,15.66
2023-03-02T10:11:10.392Z,15.96
2023-03-02T10:12:07.599Z,16
2023-03-02T10:13:07.573Z,15.47
2023-03-02T10:14:07.589Z,15.48
2023-03-02T10:15:07.863Z,15.66
2023-03-02T10:16:07.855Z,15.85
2023-03-02T10:17:07.616Z,15.92
2023-03-02T10:18:07.683Z,15.88
2023-03-02T10:19:09.824Z,15.92
2023-03-02T10:20:07.745Z,15.98
2023-03-02T10:21:07.904Z,15.96
2023-03-02T10:22:07.606Z,15.66
2023-03-02T10:23:07.602Z,15.85
2023-03-02T10:24:07.580Z,15.48
2023-03-02T10:25:07.598Z,15.36
2023-03-02T10:26:07.623Z,15.78
2023-03-02T10:27:10.665Z,15.94
2023-03-02T10:28:07.654Z,15.81
2023-03-02T10:29:07.625Z,16.1
2023-03-02T10:30:07.611Z,16.16
2023-03-02T10:31:10.301Z,16.29
2023-03-02T10:32:07.847Z,16.36
2023-03-02T10:33:07.616Z,16.54
2023-03-02T10:34:07.616Z,16.55
2023-03-02T10:35:07.750Z,16.46
2023-03-02T10:36:07.635Z,16.57
2023-03-02T10:37:07.612Z,16.41
2023-03-02T10:38:10.667Z,16.12
2023-03-02T10:39:07.611Z,15.54
2023-03-02T10:40:07.620Z,15.94
2023-03-02T10:41:07.633Z,15.7
2023-03-02T10:42:07.796Z,16.16
2023-03-02T10:43:10.387Z,16.31
2023-03-02T10:44:07.630Z,16.73
2023-03-02T10:45:07.622Z,16.51
2023-03-02T10:46:07.854Z,16.4
2023-03-02T10:47:07.693Z,16.49
2023-03-02T10:48:07.638Z,16.41
2023-03-02T10:49:07.670Z,16.26
2023-03-02T10:50:07.654Z,16.49
2023-03-02T10:51:07.634Z,16.37
2023-03-02T10:52:07.701Z,16.44
2023-03-02T10:53:09.821Z,16.47
2023-03-02T10:54:07.932Z,16.74
2023-03-02T10:55:07.656Z,17.02
2023-03-02T10:56:07.668Z,16.82
2023-03-02T10:57:07.664Z,17.02
2023-03-02T10:58:07.677Z,17.01
2023-03-02T10:59:07.663Z,16.87
2023-03-02T11:00:07.677Z,16.77
2023-03-02T11:01:07.702Z,16.5
2023-03-02T11:02:07.709Z,16.39
2023-03-02T11:03:07.718Z,16.68
2023-03-02T11:04:07.948Z,16.76
2023-03-02T11:05:10.812Z,16.55
2023-03-02T11:06:07.693Z,16.44
2023-03-02T11:07:07.656Z,16.39
2023-03-02T11:08:07.803Z,15.3
2023-03-02T11:09:07.667Z,15.91
2023-03-02T11:10:07.686Z,16.39
2023-03-02T11:11:07.738Z,16.61
2023-03-02T11:12:07.949Z,16.44
2023-03-02T11:13:07.683Z,16.32
2023-03-02T11:14:07.692Z,16.31
2023-03-02T11:15:07.690Z,16.64
2023-03-02T11:16:09.011Z,16.69
2023-03-02T11:17:08.206Z,16.17
2023-03-02T11:18:07.702Z,15.87
2023-03-02T11:19:07.771Z,16.21
2023-03-02T11:20:07.701Z,16.54
2023-03-02T11:21:07.707Z,16.55
2023-03-02T11:22:07.698Z,16.72
2023-03-02T11:23:07.795Z,16.64
2023-03-02T11:24:10.006Z,16.51
2023-03-02T11:25:07.687Z,16.25
2023-03-02T11:26:07.737Z,16.36
2023-03-02T11:27:10.473Z,16.08
2023-03-02T11:28:07.749Z,16.1
2023-03-02T11:29:07.695Z,16.13
2023-03-02T11:30:07.752Z,16.08
2023-03-02T11:31:07.890Z,15.69
2023-03-02T11:32:08.055Z,15.92
2023-03-02T11:33:07.794Z,16.17
2023-03-02T11:34:20.615Z,16.58
2023-03-02T11:35:07.791Z,16.65
2023-03-02T11:36:08.144Z,16.74
2023-03-02T11:37:07.779Z,16.73
2023-03-02T11:38:10.496Z,16.74
2023-03-02T11:39:07.736Z,16.99
2023-03-02T11:40:07.756Z,16.95
2023-03-02T11:41:07.728Z,16.76
2023-03-02T11:42:07.855Z,17.05
2023-03-02T11:43:07.721Z,16.76
2023-03-02T11:44:07.746Z,16.49
2023-03-02T11:45:07.770Z,16.43
2023-03-02T11:46:25.875Z,16.32
2023-03-02T11:47:07.983Z,16.29
2023-03-02T11:48:08.670Z,16.17
2023-03-02T11:49:10.551Z,16.17
2023-03-02T11:50:07.983Z,16.13
2023-03-02T11:51:07.748Z,16.28
2023-03-02T11:52:07.783Z,16.41
2023-03-02T11:53:07.763Z,16.72
2023-03-02T11:54:07.970Z,16.72
2023-03-02T11:55:07.782Z,16.87
2023-03-02T11:56:07.837Z,16.8
2023-03-02T11:57:07.838Z,16.61
2023-03-02T11:58:08.115Z,16.83
2023-03-02T11:59:07.776Z,17.09
2023-03-02T12:00:08.843Z,16.57
2023-03-02T12:01:07.735Z,16.08
2023-03-02T12:02:08.364Z,16.37
2023-03-02T12:03:07.811Z,16.77
2023-03-02T12:04:07.806Z,16.99
2023-03-02T12:05:10.862Z,17.04
2023-03-02T12:06:10.586Z,17.14
2023-03-02T12:07:07.798Z,17.13
2023-03-02T12:08:07.793Z,16.99
2023-03-02T12:09:07.982Z,16.98
2023-03-02T12:10:07.841Z,17.14
2023-03-02T12:11:10.642Z,17.16
2023-03-02T12:12:09.989Z,17.17
2023-03-02T12:13:07.844Z,17.38
2023-03-02T12:14:07.796Z,17.23
2023-03-02T12:15:07.796Z,17.46
2023-03-02T12:16:11.012Z,17.37
2023-03-02T12:17:07.877Z,16.72
2023-03-02T12:18:08.334Z,17.17
2023-03-02T12:19:07.815Z,16.87
2023-03-02T12:20:07.855Z,16.79
2023-03-02T12:21:07.970Z,16.69
2023-03-02T12:22:10.694Z,17.02
2023-03-02T12:23:07.820Z,16.82
2023-03-02T12:24:07.859Z,16.84
2023-03-02T12:25:07.810Z,16.95
2023-03-02T12:26:07.896Z,17.05
2023-03-02T12:27:09.455Z,16.83
2023-03-02T12:28:07.869Z,16.51
2023-03-02T12:29:07.939Z,16.92
2023-03-02T12:30:07.962Z,16.83
2023-03-02T12:31:07.879Z,17.09
2023-03-02T12:32:09.373Z,17.12
2023-03-02T12:33:07.881Z,16.99
2023-03-02T12:34:07.920Z,17.13
2023-03-02T12:35:08.012Z,17.3
2023-03-02T12:36:07.883Z,17.07
2023-03-02T12:37:08.064Z,17.38
2023-03-02T12:38:10.977Z,17.37
2023-03-02T12:39:07.880Z,17.09
2023-03-02T12:40:08.018Z,17.04
2023-03-02T12:41:10.845Z,17.16
2023-03-02T12:42:08.116Z,17.17
2023-03-02T12:43:08.005Z,16.95
2023-03-02T12:44:08.004Z,16.82
2023-03-02T12:45:08.039Z,16.39
2023-03-02T12:46:08.111Z,16.86
2023-03-02T12:47:08.979Z,17.05
2023-03-02T12:48:09.167Z,17.13
2023-03-02T12:49:11.645Z,17.07
2023-03-02T12:50:07.854Z,17.19
2023-03-02T12:51:08.091Z,17.23
2023-03-02T12:52:08.425Z,17.17
2023-03-02T12:53:07.947Z,17.19
2023-03-02T12:54:10.929Z,17.19
2023-03-02T12:55:07.897Z,17.04
2023-03-02T12:56:08.066Z,16.79
2023-03-02T12:57:07.887Z,16.8
2023-03-02T12:58:10.249Z,16.97
2023-03-02T12:59:07.873Z,16.51
2023-03-02T13:00:07.888Z,16.72
2023-03-02T13:01:08.188Z,16.72
2023-03-02T13:02:07.910Z,16.84
2023-03-02T13:03:07.898Z,16.94
2023-03-02T13:04:08.207Z,17.13
2023-03-02T13:05:11.015Z,17.39
2023-03-02T13:06:07.978Z,17.42
2023-03-02T13:07:07.880Z,17.53
2023-03-02T13:08:07.942Z,17.52
2023-03-02T13:09:08.223Z,17.35
2023-03-02T13:10:10.969Z,16.95